Airfield :







YOU CAN JOIN US ON...

 
LOGIN :

Register | Disclaimer

   EN    FR    IT 

 









Legend :    VFR   Marginal VFR   IFR   Intensive IFR   Very Intensive IFR
Visi :
Ceiling :
>= 8 km
>= 3000ft
5 to 8 km
1000 to 3000 ft
1500m to 5 km
500 to 1000 ft
800 to 1500m
200 to 500 ft
< 800m
< 200 ft
Symbols :   Thunderstorms  Fog  Heavy snow  Heavy precipitations  Wind > 20 kt






- Airport Elevation : 522 ft
- IATA code : YBG


CYBG - CFB Bagotville

CURRENT METAR :
  • 271500Z 12006KT 20SM FEW050 BKN120 BKN180 18/15 A2973 RMK SC2AC2AC2 SLP070

EXPIRED METARs :
  • 271400Z 10005KT 20SM FEW050 OVC120 15/14 A2977 RMK SC1AC7 SLP082
  • 271300Z 11004KT 20SM FEW050 OVC120 14/13 A2977 RMK SC2AC6 SLP081
  • 271231Z 12005KT 20SM VCSH FEW050 OVC120 14/13 A2976 RMK SC2AC6 SLP081

TAF TAF CYBG
Valid from the 27 at 15:00 until the 28 at 12:00 UTC


271430Z 2715/2812 10005KT P6SM FEW050 OVC120
BECMG 2716/2718 23015G25KT
FM272100 23010KT P6SM FEW050 BKN210
BECMG 2800/2802 23006KT
FM280800 VRB03KT P6SM BKN040 RMK NXT FCST BY 271800Z
CZUL FIR / North America



MET'MAP, your aeronautical weather chart ! - Copyright ORBIFLY December 2007 - Disclaimer

ORBIFLY MET'MAP TEAM :

Programming & Development : Alexandra Zaïnal
Concept & original design : Baudouin d'Aumeries
Assistance for programming : Marc-Olivier Méhu
Technical & hardware support : Manuel Goepfert

Contact : metmap@orbifly.com




SOURCES & CREDITS :

   NOAA